Terminal Aerodrome Forecast
Issued by NWS Brownsville, TX

Home | Current Version | Previous Version | Text Only | Print | Product List | Glossary On
Versions: 1 2 3 4 5 6 7 8 9 10 11 12 13 14 15
569
FTUS44 KBRO 221120
TAFHRL
TAF
KHRL 221120Z 2212/2312 14007KT P6SM SKC
     FM221500 16015G22KT P6SM FEW040
     FM230300 16010KT P6SM SKC=

USA.gov is the U.S. government's official web portal to all federal, state and local government web resources and services.